sensor_id;sensor_type;location;lat;lon;timestamp;P1;durP1;ratioP1;P2;durP2;ratioP2
11086;SDS011;5597;47.588;9.642;2022-08-30T00:00:08;8.63;;;7.80;;
11086;SDS011;5597;47.588;9.642;2022-08-30T00:02:54;7.90;;;7.20;;
11086;SDS011;5597;47.588;9.642;2022-08-30T00:05:20;8.17;;;7.47;;
11086;SDS011;5597;47.588;9.642;2022-08-30T00:07:47;8.10;;;7.40;;
11086;SDS011;5597;47.588;9.642;2022-08-30T00:10:13;8.80;;;7.97;;
11086;SDS011;5597;47.588;9.642;2022-08-30T00:12:39;7.93;;;7.23;;
11086;SDS011;5597;47.588;9.642;2022-08-30T00:15:05;8.03;;;7.33;;
11086;SDS011;5597;47.588;9.642;2022-08-30T00:17:31;7.77;;;7.07;;
11086;SDS011;5597;47.588;9.642;2022-08-30T00:19:57;7.97;;;7.27;;
11086;SDS011;5597;47.588;9.642;2022-08-30T00:22:23;8.10;;;7.27;;
11086;SDS011;5597;47.588;9.642;2022-08-30T00:24:49;8.70;;;8.00;;
11086;SDS011;5597;47.588;9.642;2022-08-30T00:27:14;8.17;;;7.47;;
11086;SDS011;5597;47.588;9.642;2022-08-30T00:29:40;8.03;;;7.33;;
11086;SDS011;5597;47.588;9.642;2022-08-30T00:32:06;7.83;;;7.13;;
11086;SDS011;5597;47.588;9.642;2022-08-30T00:34:32;8.00;;;7.30;;
11086;SDS011;5597;47.588;9.642;2022-08-30T00:36:58;8.40;;;7.63;;
11086;SDS011;5597;47.588;9.642;2022-08-30T00:39:24;8.23;;;7.50;;
11086;SDS011;5597;47.588;9.642;2022-08-30T00:41:50;7.93;;;7.23;;
11086;SDS011;5597;47.588;9.642;2022-08-30T00:44:16;8.33;;;7.30;;
11086;SDS011;5597;47.588;9.642;2022-08-30T00:46:42;8.57;;;7.77;;
11086;SDS011;5597;47.588;9.642;2022-08-30T00:49:07;7.93;;;7.23;;
11086;SDS011;5597;47.588;9.642;2022-08-30T00:51:37;8.43;;;7.57;;
11086;SDS011;5597;47.588;9.642;2022-08-30T00:54:04;8.70;;;7.93;;
11086;SDS011;5597;47.588;9.642;2022-08-30T00:56:31;7.83;;;7.13;;
11086;SDS011;5597;47.588;9.642;2022-08-30T00:58:59;9.37;;;8.47;;
11086;SDS011;5597;47.588;9.642;2022-08-30T01:01:27;8.77;;;8.07;;
11086;SDS011;5597;47.588;9.642;2022-08-30T01:03:55;7.50;;;6.90;;
11086;SDS011;5597;47.588;9.642;2022-08-30T01:06:22;7.70;;;7.10;;
11086;SDS011;5597;47.588;9.642;2022-08-30T01:08:50;8.90;;;8.10;;
11086;SDS011;5597;47.588;9.642;2022-08-30T01:11:17;7.60;;;6.80;;
11086;SDS011;5597;47.588;9.642;2022-08-30T01:13:46;8.13;;;7.33;;
11086;SDS011;5597;47.588;9.642;2022-08-30T01:16:14;8.83;;;8.03;;
11086;SDS011;5597;47.588;9.642;2022-08-30T01:18:40;8.60;;;7.80;;
11086;SDS011;5597;47.588;9.642;2022-08-30T01:23:45;8.53;;;7.83;;
11086;SDS011;5597;47.588;9.642;2022-08-30T01:26:13;8.23;;;7.53;;
11086;SDS011;5597;47.588;9.642;2022-08-30T01:28:41;8.10;;;7.40;;
11086;SDS011;5597;47.588;9.642;2022-08-30T01:31:11;8.20;;;7.50;;
11086;SDS011;5597;47.588;9.642;2022-08-30T01:33:38;8.53;;;7.83;;
11086;SDS011;5597;47.588;9.642;2022-08-30T01:36:05;9.10;;;7.60;;
11086;SDS011;5597;47.588;9.642;2022-08-30T01:41:08;9.50;;;8.47;;
11086;SDS011;5597;47.588;9.642;2022-08-30T01:43:37;9.00;;;8.20;;
11086;SDS011;5597;47.588;9.642;2022-08-30T01:46:03;8.67;;;7.87;;
11086;SDS011;5597;47.588;9.642;2022-08-30T01:48:29;8.37;;;7.50;;
11086;SDS011;5597;47.588;9.642;2022-08-30T01:50:55;9.30;;;7.27;;
11086;SDS011;5597;47.588;9.642;2022-08-30T01:53:20;7.70;;;7.00;;
11086;SDS011;5597;47.588;9.642;2022-08-30T01:55:46;8.47;;;7.77;;
11086;SDS011;5597;47.588;9.642;2022-08-30T01:58:12;8.73;;;7.93;;
11086;SDS011;5597;47.588;9.642;2022-08-30T02:00:38;8.93;;;8.13;;
11086;SDS011;5597;47.588;9.642;2022-08-30T02:03:04;8.30;;;7.60;;
11086;SDS011;5597;47.588;9.642;2022-08-30T02:05:30;9.50;;;8.60;;
11086;SDS011;5597;47.588;9.642;2022-08-30T02:07:56;9.13;;;8.33;;
11086;SDS011;5597;47.588;9.642;2022-08-30T02:10:22;9.63;;;8.73;;
11086;SDS011;5597;47.588;9.642;2022-08-30T02:12:48;9.13;;;8.23;;
11086;SDS011;5597;47.588;9.642;2022-08-30T02:15:14;7.93;;;7.23;;
11086;SDS011;5597;47.588;9.642;2022-08-30T02:17:40;8.60;;;7.77;;
11086;SDS011;5597;47.588;9.642;2022-08-30T02:20:07;9.10;;;8.30;;
11086;SDS011;5597;47.588;9.642;2022-08-30T02:22:33;8.97;;;8.17;;
11086;SDS011;5597;47.588;9.642;2022-08-30T02:24:59;8.73;;;7.93;;
11086;SDS011;5597;47.588;9.642;2022-08-30T02:27:25;10.03;;;9.03;;
11086;SDS011;5597;47.588;9.642;2022-08-30T02:29:50;9.93;;;9.00;;
11086;SDS011;5597;47.588;9.642;2022-08-30T02:32:16;10.27;;;9.37;;
11086;SDS011;5597;47.588;9.642;2022-08-30T02:34:42;10.30;;;9.30;;
11086;SDS011;5597;47.588;9.642;2022-08-30T02:37:08;9.27;;;8.37;;
11086;SDS011;5597;47.588;9.642;2022-08-30T02:39:34;9.40;;;8.50;;
11086;SDS011;5597;47.588;9.642;2022-08-30T02:42:00;9.60;;;8.70;;
11086;SDS011;5597;47.588;9.642;2022-08-30T02:44:26;9.90;;;9.00;;
11086;SDS011;5597;47.588;9.642;2022-08-30T02:46:52;11.40;;;10.20;;
11086;SDS011;5597;47.588;9.642;2022-08-30T02:49:17;10.77;;;9.77;;
11086;SDS011;5597;47.588;9.642;2022-08-30T02:51:43;9.67;;;8.80;;
11086;SDS011;5597;47.588;9.642;2022-08-30T02:54:08;9.60;;;8.70;;
11086;SDS011;5597;47.588;9.642;2022-08-30T02:56:34;10.43;;;9.43;;
11086;SDS011;5597;47.588;9.642;2022-08-30T02:59:00;9.53;;;8.63;;
11086;SDS011;5597;47.588;9.642;2022-08-30T03:01:26;9.77;;;8.87;;
11086;SDS011;5597;47.588;9.642;2022-08-30T03:03:51;9.33;;;8.43;;
11086;SDS011;5597;47.588;9.642;2022-08-30T03:06:17;9.27;;;8.33;;
11086;SDS011;5597;47.588;9.642;2022-08-30T03:08:43;9.63;;;8.73;;
11086;SDS011;5597;47.588;9.642;2022-08-30T03:11:09;10.33;;;9.30;;
11086;SDS011;5597;47.588;9.642;2022-08-30T03:13:34;9.23;;;8.27;;
11086;SDS011;5597;47.588;9.642;2022-08-30T03:16:00;9.20;;;8.30;;
11086;SDS011;5597;47.588;9.642;2022-08-30T03:18:26;9.73;;;8.73;;
11086;SDS011;5597;47.588;9.642;2022-08-30T03:20:52;8.93;;;8.13;;
11086;SDS011;5597;47.588;9.642;2022-08-30T03:23:18;8.73;;;7.93;;
11086;SDS011;5597;47.588;9.642;2022-08-30T03:25:44;9.03;;;8.23;;
11086;SDS011;5597;47.588;9.642;2022-08-30T03:28:09;9.20;;;8.40;;
11086;SDS011;5597;47.588;9.642;2022-08-30T03:30:35;10.63;;;9.57;;
11086;SDS011;5597;47.588;9.642;2022-08-30T03:33:01;9.87;;;8.90;;
11086;SDS011;5597;47.588;9.642;2022-08-30T03:35:27;9.53;;;8.67;;
11086;SDS011;5597;47.588;9.642;2022-08-30T03:37:53;10.87;;;9.83;;
11086;SDS011;5597;47.588;9.642;2022-08-30T03:40:20;10.00;;;9.10;;
11086;SDS011;5597;47.588;9.642;2022-08-30T03:42:46;10.00;;;9.10;;
11086;SDS011;5597;47.588;9.642;2022-08-30T03:45:13;9.43;;;8.63;;
11086;SDS011;5597;47.588;9.642;2022-08-30T03:47:40;9.60;;;8.70;;
11086;SDS011;5597;47.588;9.642;2022-08-30T03:50:06;9.23;;;8.40;;
11086;SDS011;5597;47.588;9.642;2022-08-30T03:52:32;9.10;;;8.23;;
11086;SDS011;5597;47.588;9.642;2022-08-30T03:54:58;9.90;;;9.00;;
11086;SDS011;5597;47.588;9.642;2022-08-30T03:57:25;9.67;;;8.77;;
11086;SDS011;5597;47.588;9.642;2022-08-30T03:59:51;10.07;;;9.17;;
11086;SDS011;5597;47.588;9.642;2022-08-30T04:02:17;9.57;;;8.67;;
11086;SDS011;5597;47.588;9.642;2022-08-30T04:04:43;8.97;;;8.17;;
11086;SDS011;5597;47.588;9.642;2022-08-30T04:07:08;9.17;;;8.37;;
11086;SDS011;5597;47.588;9.642;2022-08-30T04:09:34;10.30;;;9.20;;
11086;SDS011;5597;47.588;9.642;2022-08-30T04:11:59;10.27;;;9.33;;
11086;SDS011;5597;47.588;9.642;2022-08-30T04:14:25;10.73;;;9.70;;
11086;SDS011;5597;47.588;9.642;2022-08-30T04:16:51;9.70;;;8.53;;
11086;SDS011;5597;47.588;9.642;2022-08-30T04:19:16;9.90;;;8.90;;
11086;SDS011;5597;47.588;9.642;2022-08-30T04:21:42;10.40;;;9.10;;
11086;SDS011;5597;47.588;9.642;2022-08-30T04:24:09;10.47;;;9.40;;
11086;SDS011;5597;47.588;9.642;2022-08-30T04:26:35;10.63;;;9.53;;
11086;SDS011;5597;47.588;9.642;2022-08-30T04:29:01;10.97;;;9.87;;
11086;SDS011;5597;47.588;9.642;2022-08-30T04:31:27;9.90;;;9.00;;
11086;SDS011;5597;47.588;9.642;2022-08-30T04:33:52;10.80;;;9.80;;
11086;SDS011;5597;47.588;9.642;2022-08-30T04:36:18;9.83;;;8.80;;
11086;SDS011;5597;47.588;9.642;2022-08-30T04:38:44;10.33;;;9.40;;
11086;SDS011;5597;47.588;9.642;2022-08-30T04:41:14;11.47;;;9.87;;
11086;SDS011;5597;47.588;9.642;2022-08-30T04:43:42;10.27;;;9.37;;
11086;SDS011;5597;47.588;9.642;2022-08-30T04:46:09;9.67;;;8.73;;
11086;SDS011;5597;47.588;9.642;2022-08-30T04:48:35;10.47;;;9.50;;
11086;SDS011;5597;47.588;9.642;2022-08-30T04:51:05;10.40;;;9.43;;
11086;SDS011;5597;47.588;9.642;2022-08-30T04:53:32;11.07;;;10.03;;
11086;SDS011;5597;47.588;9.642;2022-08-30T04:55:58;11.20;;;10.10;;
11086;SDS011;5597;47.588;9.642;2022-08-30T04:58:25;11.17;;;10.17;;
11086;SDS011;5597;47.588;9.642;2022-08-30T05:00:51;12.20;;;11.00;;
11086;SDS011;5597;47.588;9.642;2022-08-30T05:03:16;11.63;;;10.53;;
11086;SDS011;5597;47.588;9.642;2022-08-30T05:05:48;11.00;;;9.90;;
11086;SDS011;5597;47.588;9.642;2022-08-30T05:08:15;10.80;;;9.73;;
11086;SDS011;5597;47.588;9.642;2022-08-30T05:10:43;10.27;;;9.27;;
11086;SDS011;5597;47.588;9.642;2022-08-30T05:13:11;11.60;;;10.40;;
11086;SDS011;5597;47.588;9.642;2022-08-30T05:15:38;11.13;;;10.07;;
11086;SDS011;5597;47.588;9.642;2022-08-30T05:18:04;11.53;;;10.43;;
11086;SDS011;5597;47.588;9.642;2022-08-30T05:20:32;11.17;;;10.07;;
11086;SDS011;5597;47.588;9.642;2022-08-30T05:22:58;11.93;;;10.63;;
11086;SDS011;5597;47.588;9.642;2022-08-30T05:25:25;12.37;;;11.07;;
11086;SDS011;5597;47.588;9.642;2022-08-30T05:27:53;11.33;;;10.23;;
11086;SDS011;5597;47.588;9.642;2022-08-30T05:30:20;11.47;;;10.27;;
11086;SDS011;5597;47.588;9.642;2022-08-30T05:32:47;11.33;;;10.13;;
11086;SDS011;5597;47.588;9.642;2022-08-30T05:35:13;10.57;;;9.57;;
11086;SDS011;5597;47.588;9.642;2022-08-30T05:37:40;10.50;;;9.50;;
11086;SDS011;5597;47.588;9.642;2022-08-30T05:40:05;10.67;;;9.57;;
11086;SDS011;5597;47.588;9.642;2022-08-30T05:42:32;9.97;;;9.07;;
11086;SDS011;5597;47.588;9.642;2022-08-30T05:44:59;10.53;;;9.43;;
11086;SDS011;5597;47.588;9.642;2022-08-30T05:47:25;10.03;;;9.13;;
11086;SDS011;5597;47.588;9.642;2022-08-30T05:49:51;10.40;;;9.40;;
11086;SDS011;5597;47.588;9.642;2022-08-30T05:52:17;10.43;;;9.23;;
11086;SDS011;5597;47.588;9.642;2022-08-30T05:54:43;10.80;;;9.70;;
11086;SDS011;5597;47.588;9.642;2022-08-30T05:57:09;10.43;;;9.40;;
11086;SDS011;5597;47.588;9.642;2022-08-30T05:59:35;9.77;;;8.77;;
11086;SDS011;5597;47.588;9.642;2022-08-30T06:02:00;10.47;;;9.40;;
11086;SDS011;5597;47.588;9.642;2022-08-30T06:04:26;9.70;;;8.80;;
11086;SDS011;5597;47.588;9.642;2022-08-30T06:06:52;9.30;;;8.40;;
11086;SDS011;5597;47.588;9.642;2022-08-30T06:09:17;11.13;;;8.93;;
11086;SDS011;5597;47.588;9.642;2022-08-30T06:11:44;8.87;;;8.07;;
11086;SDS011;5597;47.588;9.642;2022-08-30T06:14:10;9.20;;;8.07;;
11086;SDS011;5597;47.588;9.642;2022-08-30T06:16:37;9.10;;;8.30;;
11086;SDS011;5597;47.588;9.642;2022-08-30T06:19:04;8.30;;;7.60;;
11086;SDS011;5597;47.588;9.642;2022-08-30T06:21:33;9.67;;;7.67;;
11086;SDS011;5597;47.588;9.642;2022-08-30T06:24:00;8.30;;;7.60;;
11086;SDS011;5597;47.588;9.642;2022-08-30T06:26:28;7.77;;;7.00;;
11086;SDS011;5597;47.588;9.642;2022-08-30T06:28:54;7.27;;;6.63;;
11086;SDS011;5597;47.588;9.642;2022-08-30T06:31:21;7.17;;;6.43;;
11086;SDS011;5597;47.588;9.642;2022-08-30T06:33:49;7.07;;;6.47;;
11086;SDS011;5597;47.588;9.642;2022-08-30T06:36:16;6.53;;;6.03;;
11086;SDS011;5597;47.588;9.642;2022-08-30T06:38:44;6.83;;;6.23;;
11086;SDS011;5597;47.588;9.642;2022-08-30T06:41:12;7.10;;;6.47;;
11086;SDS011;5597;47.588;9.642;2022-08-30T06:43:39;7.07;;;6.47;;
11086;SDS011;5597;47.588;9.642;2022-08-30T06:46:06;7.33;;;6.33;;
11086;SDS011;5597;47.588;9.642;2022-08-30T06:48:34;7.30;;;6.60;;
11086;SDS011;5597;47.588;9.642;2022-08-30T06:51:00;6.30;;;5.80;;
11086;SDS011;5597;47.588;9.642;2022-08-30T06:53:26;7.33;;;6.73;;
11086;SDS011;5597;47.588;9.642;2022-08-30T06:56:00;6.83;;;6.23;;
11086;SDS011;5597;47.588;9.642;2022-08-30T06:58:32;6.07;;;5.57;;
11086;SDS011;5597;47.588;9.642;2022-08-30T07:00:59;7.50;;;6.17;;
11086;SDS011;5597;47.588;9.642;2022-08-30T07:03:25;6.70;;;6.00;;
11086;SDS011;5597;47.588;9.642;2022-08-30T07:05:51;6.37;;;5.77;;
11086;SDS011;5597;47.588;9.642;2022-08-30T07:08:17;5.90;;;5.40;;
11086;SDS011;5597;47.588;9.642;2022-08-30T07:10:42;6.10;;;5.60;;
11086;SDS011;5597;47.588;9.642;2022-08-30T07:13:09;5.73;;;5.23;;
11086;SDS011;5597;47.588;9.642;2022-08-30T07:15:35;6.53;;;5.93;;
11086;SDS011;5597;47.588;9.642;2022-08-30T07:18:04;6.07;;;5.47;;
11086;SDS011;5597;47.588;9.642;2022-08-30T07:20:48;6.57;;;5.97;;
11086;SDS011;5597;47.588;9.642;2022-08-30T07:23:13;6.73;;;6.03;;
11086;SDS011;5597;47.588;9.642;2022-08-30T07:25:39;6.53;;;5.53;;
11086;SDS011;5597;47.588;9.642;2022-08-30T07:28:06;6.07;;;5.33;;
11086;SDS011;5597;47.588;9.642;2022-08-30T07:30:33;5.77;;;5.30;;
11086;SDS011;5597;47.588;9.642;2022-08-30T07:32:59;6.13;;;5.53;;
11086;SDS011;5597;47.588;9.642;2022-08-30T07:35:25;5.93;;;5.37;;
11086;SDS011;5597;47.588;9.642;2022-08-30T07:37:51;6.40;;;5.80;;
11086;SDS011;5597;47.588;9.642;2022-08-30T07:40:16;5.67;;;5.17;;
11086;SDS011;5597;47.588;9.642;2022-08-30T07:42:42;5.53;;;5.03;;
11086;SDS011;5597;47.588;9.642;2022-08-30T07:45:08;5.30;;;4.80;;
11086;SDS011;5597;47.588;9.642;2022-08-30T07:47:35;5.10;;;4.70;;
11086;SDS011;5597;47.588;9.642;2022-08-30T07:50:01;5.17;;;4.77;;
11086;SDS011;5597;47.588;9.642;2022-08-30T07:52:28;5.47;;;4.97;;
11086;SDS011;5597;47.588;9.642;2022-08-30T07:54:54;4.80;;;4.50;;
11086;SDS011;5597;47.588;9.642;2022-08-30T07:57:20;4.90;;;4.50;;
11086;SDS011;5597;47.588;9.642;2022-08-30T07:59:47;5.37;;;4.87;;
11086;SDS011;5597;47.588;9.642;2022-08-30T08:02:13;5.30;;;4.90;;
11086;SDS011;5597;47.588;9.642;2022-08-30T08:04:38;5.37;;;4.87;;
11086;SDS011;5597;47.588;9.642;2022-08-30T08:07:04;5.37;;;4.80;;
11086;SDS011;5597;47.588;9.642;2022-08-30T08:09:30;5.10;;;4.70;;
11086;SDS011;5597;47.588;9.642;2022-08-30T08:11:55;4.90;;;4.50;;
11086;SDS011;5597;47.588;9.642;2022-08-30T08:14:21;5.07;;;4.53;;
11086;SDS011;5597;47.588;9.642;2022-08-30T08:16:47;5.17;;;4.47;;
11086;SDS011;5597;47.588;9.642;2022-08-30T08:19:13;6.33;;;4.63;;
11086;SDS011;5597;47.588;9.642;2022-08-30T08:21:39;4.80;;;4.40;;
11086;SDS011;5597;47.588;9.642;2022-08-30T08:24:05;4.80;;;4.40;;
11086;SDS011;5597;47.588;9.642;2022-08-30T08:26:33;4.93;;;4.53;;
11086;SDS011;5597;47.588;9.642;2022-08-30T08:29:00;4.80;;;4.40;;
11086;SDS011;5597;47.588;9.642;2022-08-30T08:31:27;5.10;;;4.70;;
11086;SDS011;5597;47.588;9.642;2022-08-30T08:33:53;4.47;;;4.17;;
11086;SDS011;5597;47.588;9.642;2022-08-30T08:36:20;4.77;;;4.37;;
11086;SDS011;5597;47.588;9.642;2022-08-30T08:38:45;4.40;;;4.00;;
11086;SDS011;5597;47.588;9.642;2022-08-30T08:44:07;4.53;;;4.23;;
11086;SDS011;5597;47.588;9.642;2022-08-30T08:46:55;4.13;;;3.83;;
11086;SDS011;5597;47.588;9.642;2022-08-30T08:49:44;4.73;;;4.40;;
11086;SDS011;5597;47.588;9.642;2022-08-30T08:52:18;4.53;;;4.13;;
11086;SDS011;5597;47.588;9.642;2022-08-30T08:55:19;4.53;;;4.23;;
11086;SDS011;5597;47.588;9.642;2022-08-30T08:57:46;4.33;;;4.03;;
11086;SDS011;5597;47.588;9.642;2022-08-30T09:00:12;4.70;;;4.40;;
11086;SDS011;5597;47.588;9.642;2022-08-30T09:02:40;4.90;;;4.50;;
11086;SDS011;5597;47.588;9.642;2022-08-30T09:05:14;4.70;;;4.30;;
11086;SDS011;5597;47.588;9.642;2022-08-30T09:07:47;4.53;;;4.13;;
11086;SDS011;5597;47.588;9.642;2022-08-30T09:10:15;4.83;;;4.43;;
11086;SDS011;5597;47.588;9.642;2022-08-30T09:12:41;4.23;;;3.93;;
11086;SDS011;5597;47.588;9.642;2022-08-30T09:17:56;5.03;;;4.53;;
11086;SDS011;5597;47.588;9.642;2022-08-30T09:20:35;4.50;;;4.10;;
11086;SDS011;5597;47.588;9.642;2022-08-30T09:23:25;5.17;;;4.67;;
11086;SDS011;5597;47.588;9.642;2022-08-30T09:26:03;4.60;;;4.20;;
11086;SDS011;5597;47.588;9.642;2022-08-30T09:28:36;4.80;;;4.40;;
11086;SDS011;5597;47.588;9.642;2022-08-30T09:31:19;4.83;;;4.53;;
11086;SDS011;5597;47.588;9.642;2022-08-30T09:33:58;5.43;;;4.70;;
11086;SDS011;5597;47.588;9.642;2022-08-30T09:36:29;4.63;;;4.23;;
11086;SDS011;5597;47.588;9.642;2022-08-30T09:38:59;4.60;;;4.20;;
11086;SDS011;5597;47.588;9.642;2022-08-30T09:41:40;5.43;;;4.90;;
11086;SDS011;5597;47.588;9.642;2022-08-30T09:44:15;4.90;;;4.50;;
11086;SDS011;5597;47.588;9.642;2022-08-30T09:49:25;4.80;;;4.43;;
11086;SDS011;5597;47.588;9.642;2022-08-30T09:55:06;5.37;;;4.57;;
11086;SDS011;5597;47.588;9.642;2022-08-30T10:00:21;5.37;;;4.40;;
11086;SDS011;5597;47.588;9.642;2022-08-30T10:03:13;6.60;;;5.00;;
11086;SDS011;5597;47.588;9.642;2022-08-30T10:08:31;5.20;;;4.80;;
11086;SDS011;5597;47.588;9.642;2022-08-30T10:14:01;6.63;;;6.00;;
11086;SDS011;5597;47.588;9.642;2022-08-30T10:19:39;6.00;;;5.40;;
11086;SDS011;5597;47.588;9.642;2022-08-30T10:22:36;6.77;;;6.17;;
11086;SDS011;5597;47.588;9.642;2022-08-30T10:25:24;6.40;;;5.80;;
11086;SDS011;5597;47.588;9.642;2022-08-30T10:27:59;6.40;;;5.90;;
11086;SDS011;5597;47.588;9.642;2022-08-30T10:30:48;6.80;;;6.23;;
11086;SDS011;5597;47.588;9.642;2022-08-30T10:33:22;7.50;;;6.90;;
11086;SDS011;5597;47.588;9.642;2022-08-30T10:35:52;6.90;;;6.33;;
11086;SDS011;5597;47.588;9.642;2022-08-30T10:38:22;5.70;;;5.30;;
11086;SDS011;5597;47.588;9.642;2022-08-30T10:40:59;6.60;;;6.10;;
11086;SDS011;5597;47.588;9.642;2022-08-30T10:46:25;6.60;;;6.00;;
11086;SDS011;5597;47.588;9.642;2022-08-30T10:49:11;7.30;;;6.70;;
11086;SDS011;5597;47.588;9.642;2022-08-30T10:51:43;6.87;;;6.27;;
11086;SDS011;5597;47.588;9.642;2022-08-30T10:54:25;6.80;;;6.20;;
11086;SDS011;5597;47.588;9.642;2022-08-30T10:57:10;7.30;;;6.60;;
11086;SDS011;5597;47.588;9.642;2022-08-30T10:59:36;7.10;;;6.40;;
11086;SDS011;5597;47.588;9.642;2022-08-30T11:13:38;6.40;;;5.90;;
11086;SDS011;5597;47.588;9.642;2022-08-30T11:16:09;7.97;;;7.17;;
11086;SDS011;5597;47.588;9.642;2022-08-30T11:18:47;6.00;;;5.43;;
11086;SDS011;5597;47.588;9.642;2022-08-30T11:21:26;5.70;;;5.30;;
11086;SDS011;5597;47.588;9.642;2022-08-30T11:32:23;6.57;;;6.07;;
11086;SDS011;5597;47.588;9.642;2022-08-30T11:35:09;5.80;;;5.30;;
11086;SDS011;5597;47.588;9.642;2022-08-30T11:37:38;6.10;;;5.60;;
11086;SDS011;5597;47.588;9.642;2022-08-30T11:40:06;5.80;;;5.30;;
11086;SDS011;5597;47.588;9.642;2022-08-30T11:42:45;6.10;;;5.60;;
11086;SDS011;5597;47.588;9.642;2022-08-30T11:47:51;6.17;;;5.67;;
11086;SDS011;5597;47.588;9.642;2022-08-30T11:58:54;6.37;;;5.73;;
11086;SDS011;5597;47.588;9.642;2022-08-30T12:03:52;5.27;;;4.87;;
11086;SDS011;5597;47.588;9.642;2022-08-30T12:17:14;5.37;;;4.97;;
11086;SDS011;5597;47.588;9.642;2022-08-30T12:20:03;6.43;;;5.40;;
11086;SDS011;5597;47.588;9.642;2022-08-30T12:22:35;5.10;;;4.63;;
11086;SDS011;5597;47.588;9.642;2022-08-30T12:25:02;5.67;;;5.17;;
11086;SDS011;5597;47.588;9.642;2022-08-30T12:27:47;5.07;;;4.67;;
11086;SDS011;5597;47.588;9.642;2022-08-30T12:30:13;5.73;;;5.23;;
11086;SDS011;5597;47.588;9.642;2022-08-30T12:32:43;5.60;;;5.20;;
11086;SDS011;5597;47.588;9.642;2022-08-30T12:35:19;5.20;;;4.80;;
11086;SDS011;5597;47.588;9.642;2022-08-30T12:37:59;4.90;;;4.50;;
11086;SDS011;5597;47.588;9.642;2022-08-30T12:40:29;5.40;;;5.00;;
11086;SDS011;5597;47.588;9.642;2022-08-30T12:43:00;4.60;;;4.20;;
11086;SDS011;5597;47.588;9.642;2022-08-30T12:45:40;5.57;;;5.10;;
11086;SDS011;5597;47.588;9.642;2022-08-30T12:48:09;5.00;;;4.60;;
11086;SDS011;5597;47.588;9.642;2022-08-30T12:50:43;5.40;;;4.97;;
11086;SDS011;5597;47.588;9.642;2022-08-30T12:53:16;5.13;;;4.77;;
11086;SDS011;5597;47.588;9.642;2022-08-30T13:01:12;4.80;;;4.40;;
11086;SDS011;5597;47.588;9.642;2022-08-30T13:04:02;4.60;;;4.30;;
11086;SDS011;5597;47.588;9.642;2022-08-30T13:06:54;5.10;;;4.60;;
11086;SDS011;5597;47.588;9.642;2022-08-30T13:09:32;4.90;;;4.60;;
11086;SDS011;5597;47.588;9.642;2022-08-30T13:12:00;5.00;;;4.70;;
11086;SDS011;5597;47.588;9.642;2022-08-30T13:14:37;5.30;;;4.80;;
11086;SDS011;5597;47.588;9.642;2022-08-30T13:17:25;4.90;;;4.50;;
11086;SDS011;5597;47.588;9.642;2022-08-30T13:20:01;4.50;;;4.20;;
11086;SDS011;5597;47.588;9.642;2022-08-30T13:25:01;4.63;;;4.33;;
11086;SDS011;5597;47.588;9.642;2022-08-30T13:27:28;4.90;;;4.50;;
11086;SDS011;5597;47.588;9.642;2022-08-30T13:29:54;4.70;;;4.30;;
11086;SDS011;5597;47.588;9.642;2022-08-30T13:32:21;5.20;;;4.80;;
11086;SDS011;5597;47.588;9.642;2022-08-30T13:34:50;4.90;;;4.50;;
11086;SDS011;5597;47.588;9.642;2022-08-30T13:37:22;5.67;;;4.70;;
11086;SDS011;5597;47.588;9.642;2022-08-30T13:39:50;5.10;;;4.70;;
11086;SDS011;5597;47.588;9.642;2022-08-30T13:42:15;4.60;;;4.30;;
11086;SDS011;5597;47.588;9.642;2022-08-30T13:44:41;4.80;;;4.40;;
11086;SDS011;5597;47.588;9.642;2022-08-30T13:47:07;4.80;;;4.40;;
11086;SDS011;5597;47.588;9.642;2022-08-30T13:49:34;4.50;;;4.10;;
11086;SDS011;5597;47.588;9.642;2022-08-30T13:52:02;4.80;;;4.50;;
11086;SDS011;5597;47.588;9.642;2022-08-30T13:54:28;5.40;;;5.00;;
11086;SDS011;5597;47.588;9.642;2022-08-30T13:56:54;5.50;;;5.00;;
11086;SDS011;5597;47.588;9.642;2022-08-30T13:59:20;5.80;;;5.30;;
11086;SDS011;5597;47.588;9.642;2022-08-30T14:01:46;5.63;;;5.13;;
11086;SDS011;5597;47.588;9.642;2022-08-30T14:04:13;5.30;;;4.90;;
11086;SDS011;5597;47.588;9.642;2022-08-30T14:06:38;5.40;;;5.00;;
11086;SDS011;5597;47.588;9.642;2022-08-30T14:09:04;5.70;;;5.30;;
11086;SDS011;5597;47.588;9.642;2022-08-30T14:11:31;5.47;;;5.07;;
11086;SDS011;5597;47.588;9.642;2022-08-30T14:13:58;5.20;;;4.70;;
11086;SDS011;5597;47.588;9.642;2022-08-30T14:16:24;5.27;;;4.87;;
11086;SDS011;5597;47.588;9.642;2022-08-30T14:18:50;4.70;;;4.30;;
11086;SDS011;5597;47.588;9.642;2022-08-30T14:21:16;4.80;;;4.40;;
11086;SDS011;5597;47.588;9.642;2022-08-30T14:23:42;4.70;;;4.30;;
11086;SDS011;5597;47.588;9.642;2022-08-30T14:26:16;4.83;;;4.43;;
11086;SDS011;5597;47.588;9.642;2022-08-30T14:28:44;4.27;;;3.87;;
11086;SDS011;5597;47.588;9.642;2022-08-30T14:31:10;4.53;;;4.00;;
11086;SDS011;5597;47.588;9.642;2022-08-30T14:33:36;4.00;;;3.60;;
11086;SDS011;5597;47.588;9.642;2022-08-30T14:36:02;3.30;;;3.10;;
11086;SDS011;5597;47.588;9.642;2022-08-30T14:38:28;3.60;;;3.30;;
11086;SDS011;5597;47.588;9.642;2022-08-30T14:40:54;4.00;;;3.70;;
11086;SDS011;5597;47.588;9.642;2022-08-30T14:43:20;5.67;;;3.93;;
11086;SDS011;5597;47.588;9.642;2022-08-30T14:45:48;4.07;;;3.73;;
11086;SDS011;5597;47.588;9.642;2022-08-30T14:48:14;3.80;;;3.50;;
11086;SDS011;5597;47.588;9.642;2022-08-30T14:50:40;4.00;;;3.60;;
11086;SDS011;5597;47.588;9.642;2022-08-30T14:53:05;3.83;;;3.47;;
11086;SDS011;5597;47.588;9.642;2022-08-30T14:55:32;3.97;;;3.47;;
11086;SDS011;5597;47.588;9.642;2022-08-30T14:57:58;4.57;;;3.50;;
11086;SDS011;5597;47.588;9.642;2022-08-30T15:00:25;3.90;;;3.50;;
11086;SDS011;5597;47.588;9.642;2022-08-30T15:02:50;4.40;;;4.03;;
11086;SDS011;5597;47.588;9.642;2022-08-30T15:05:16;3.63;;;3.40;;
11086;SDS011;5597;47.588;9.642;2022-08-30T15:07:42;3.70;;;3.40;;
11086;SDS011;5597;47.588;9.642;2022-08-30T15:10:08;3.73;;;3.43;;
11086;SDS011;5597;47.588;9.642;2022-08-30T15:12:34;4.10;;;3.80;;
11086;SDS011;5597;47.588;9.642;2022-08-30T15:15:00;3.90;;;3.60;;
11086;SDS011;5597;47.588;9.642;2022-08-30T15:17:26;4.23;;;3.83;;
11086;SDS011;5597;47.588;9.642;2022-08-30T15:19:51;4.20;;;3.80;;
11086;SDS011;5597;47.588;9.642;2022-08-30T15:22:17;4.07;;;3.77;;
11086;SDS011;5597;47.588;9.642;2022-08-30T15:24:43;4.23;;;3.67;;
11086;SDS011;5597;47.588;9.642;2022-08-30T15:27:09;4.03;;;3.63;;
11086;SDS011;5597;47.588;9.642;2022-08-30T15:29:35;3.87;;;3.57;;
11086;SDS011;5597;47.588;9.642;2022-08-30T15:32:00;4.00;;;3.60;;
11086;SDS011;5597;47.588;9.642;2022-08-30T15:34:28;5.30;;;4.00;;
11086;SDS011;5597;47.588;9.642;2022-08-30T15:36:55;4.27;;;3.87;;
11086;SDS011;5597;47.588;9.642;2022-08-30T15:39:21;4.40;;;4.00;;
11086;SDS011;5597;47.588;9.642;2022-08-30T15:41:47;4.70;;;4.10;;
11086;SDS011;5597;47.588;9.642;2022-08-30T15:44:15;4.27;;;3.83;;
11086;SDS011;5597;47.588;9.642;2022-08-30T15:46:42;11.50;;;5.73;;
11086;SDS011;5597;47.588;9.642;2022-08-30T15:49:11;5.40;;;3.90;;
11086;SDS011;5597;47.588;9.642;2022-08-30T15:51:39;5.47;;;3.90;;
11086;SDS011;5597;47.588;9.642;2022-08-30T15:54:06;3.97;;;3.60;;
11086;SDS011;5597;47.588;9.642;2022-08-30T15:56:33;3.67;;;3.37;;
11086;SDS011;5597;47.588;9.642;2022-08-30T15:58:59;4.20;;;3.67;;
11086;SDS011;5597;47.588;9.642;2022-08-30T16:01:25;3.80;;;3.50;;
11086;SDS011;5597;47.588;9.642;2022-08-30T16:03:50;5.60;;;4.47;;
11086;SDS011;5597;47.588;9.642;2022-08-30T16:06:18;7.07;;;4.30;;
11086;SDS011;5597;47.588;9.642;2022-08-30T16:08:46;4.30;;;3.90;;
11086;SDS011;5597;47.588;9.642;2022-08-30T16:11:12;5.67;;;4.13;;
11086;SDS011;5597;47.588;9.642;2022-08-30T16:13:39;4.33;;;4.03;;
11086;SDS011;5597;47.588;9.642;2022-08-30T16:16:05;3.77;;;3.47;;
11086;SDS011;5597;47.588;9.642;2022-08-30T16:18:33;3.80;;;3.50;;
11086;SDS011;5597;47.588;9.642;2022-08-30T16:21:03;4.43;;;4.00;;
11086;SDS011;5597;47.588;9.642;2022-08-30T16:23:35;5.17;;;4.07;;
11086;SDS011;5597;47.588;9.642;2022-08-30T16:26:03;4.00;;;3.70;;
11086;SDS011;5597;47.588;9.642;2022-08-30T16:28:28;4.20;;;3.80;;